メインページ
METAR-TAF:

METAR-TAF

空港 :

ワルシャワ, ポーランド

ワルシャワ・ショパン空港

緯度: 52-10N, 経度: 020-58E, 海抜: 106m

現時点の気象観測

当レポートは8分前の10:30(UTC)に作成
南西の風 9kt、南/南西から西の間で変化する
気温 4°C
湿度 81%
気圧 1005 hPa
視程10km以上
高度1600ftの雲はほとんどない
高度3000ftの千切れ雲あり

METAR: EPWA 191030Z 23009KT 200V260 9999 FEW016 BKN030 04/01 Q1005 NOSIG

時間: 11:38 (10:38 UTC)

予報

当レポートは5時間8分前の05:30(UTC)に作成
予報は19日の 06時(UTC)から 20日の 06時(UTC)まで有効
西/南西の風 12kt
視程10km以上
高度1800ftの千切れ雲あり
19日の 06時(UTC)から 19日の 16時(UTC)まで一時的に
西/南西の風 16kt、最大26ktの突風を伴う
確率 40%
19日の 06時(UTC)から 19日の 08時(UTC)まで
高度1400ftの千切れ雲あり
19日の 18時(UTC)から 19日の 20時(UTC)まで徐々に
高度1200ftの千切れ雲あり
19日の 18時(UTC)から 19日の 22時(UTC)まで一時的に
西/南西の風 16kt、最大26ktの突風を伴う
視程: 4500m
高度700ftの千切れ雲あり
19日の 22時(UTC)から 20日の 06時(UTC)まで一時的に
視程: 2900m
高度400ftの千切れ雲あり
高度1100ftの千切れ雲あり, 積乱雲.
にわか雪, 雨
確率 40% :
20日の 02時(UTC)から 20日の 06時(UTC)まで一時的に
視程: 1400m
高度800ftの千切れ雲あり, 積乱雲.
にわか雪

TAF: EPWA 190530Z 1906/2006 24012KT 9999 BKN018 TEMPO 1906/1916 24016G26KT PROB40 1906/1908 BKN014 BECMG 1918/1920 BKN012 TEMPO 1918/1922 24016G26KT 4500 RA BKN007 TEMPO 1922/2006 2900 SHSNRA BKN004 BKN011CB PROB40 TEMPO 2002/2006 1400 SHSN BKN008CB

4,000以上の空港の気象観測と天気予報(METAR報とTAF報)

利用可能な観測所は地図上に黄色い丸と赤い丸で示す。

丸の上にカーソルを重ねると観測所名を参照できる。

次にクリックすると気象観測と天気予報を参照できる。

マップの切り替え:黒色「×」印の緑ボタンをクリックして拡大、「-」印の緑ボタンをクリックして縮小、緑色の三角印をクリックして隣りの地図に切り替え


METAR-TAF: